Time;durP1;ratioP1;P1;durP2;ratioP2;P2;SDS_P1;SDS_P2;PMS_P1;PMS_P2;Temp;Humidity;BMP_temperature;BMP_pressure;BME280_temperature;BME280_humidity;BME280_pressure;Samples;Min_cycle;Max_cycle;Signal;HPM_P1;HPM_P2
2022/01/20 00:02:22;;;;;;;33.88;13.13;;;;;;;-3.33;76.86;95360.34;5079568;28;20702;-82
2022/01/20 00:04:52;;;;;;;36.15;11.82;;;;;;;-3.53;76.04;95359.78;5093065;28;20209;-80
2022/01/20 00:26:44;;;;;;;24.35;10.55;;;;;;;-4.04;77.76;95350.38;5093785;28;20225;-82
2022/01/20 00:29:20;;;;;;;28.10;11.02;;;;;;;-3.97;77.64;95349.28;5093716;28;20307;-82
2022/01/20 00:32:01;;;;;;;28.38;11.77;;;;;;;-3.85;77.07;95333.47;5093403;28;20253;-82
2022/01/20 00:34:53;;;;;;;20.52;9.85;;;;;;;-3.93;77.94;95331.13;5093544;28;20229;-82
2022/01/20 00:37:19;;;;;;;21.25;9.60;;;;;;;-3.70;78.51;95328.63;5092893;28;20228;-82
2022/01/20 00:39:46;;;;;;;29.30;11.02;;;;;;;-3.67;77.00;95332.66;5093164;28;20233;-82
2022/01/20 00:42:15;;;;;;;21.75;10.50;;;;;;;-3.69;76.99;95335.50;5093189;28;20215;-82
2022/01/20 00:44:41;;;;;;;26.95;11.27;;;;;;;-3.90;77.56;95327.22;5093376;28;20685;-82
2022/01/20 00:47:08;;;;;;;29.45;13.40;;;;;;;-3.80;77.56;95333.63;5090325;28;20857;-81
2022/01/20 00:49:37;;;;;;;28.27;11.93;;;;;;;-3.74;79.07;95327.44;5081459;28;20206;-80
2022/01/20 00:52:05;;;;;;;26.20;12.45;;;;;;;-3.67;78.98;95333.47;5093292;28;20202;-81
2022/01/20 00:54:32;;;;;;;27.38;11.52;;;;;;;-3.74;78.33;95332.75;5092882;28;20198;-81
2022/01/20 00:56:59;;;;;;;30.05;12.70;;;;;;;-3.79;78.28;95329.94;5092946;28;20213;-80
2022/01/20 00:59:28;;;;;;;30.13;11.90;;;;;;;-3.94;77.80;95322.38;5082817;28;20227;-81
2022/01/20 01:01:55;;;;;;;27.90;11.30;;;;;;;-3.83;76.79;95322.69;5089797;28;20201;-80
2022/01/20 01:04:23;;;;;;;20.38;9.32;;;;;;;-3.81;77.15;95316.13;5092452;28;20210;-80
2022/01/20 01:07:10;;;;;;;27.33;11.02;;;;;;;-3.84;76.68;95316.56;5092002;28;20609;-80
2022/01/20 01:09:39;;;;;;;27.42;10.70;;;;;;;-3.71;77.10;95318.25;5092866;28;20198;-80
2022/01/20 01:12:10;;;;;;;25.73;9.23;;;;;;;-3.68;77.82;95315.97;5092436;28;20206;-80
2022/01/20 01:14:42;;;;;;;17.35;8.20;;;;;;;-3.75;76.33;95325.03;5091522;28;20309;-80
2022/01/20 01:20:15;;;;;;;16.92;7.93;;;;;;;-4.05;77.10;95324.94;5092078;28;20691;-80
2022/01/20 01:22:44;;;;;;;18.52;8.85;;;;;;;-4.01;77.38;95315.53;5092361;28;20283;-80
2022/01/20 01:25:11;;;;;;;21.83;8.48;;;;;;;-3.88;77.65;95299.53;5092417;28;20222;-81
2022/01/20 01:27:40;;;;;;;23.73;7.95;;;;;;;-3.92;78.21;95300.97;5092269;28;20203;-81
2022/01/20 01:30:20;;;;;;;26.90;9.65;;;;;;;-3.86;76.94;95294.81;5092298;28;20222;-80
2022/01/20 01:32:50;;;;;;;22.35;8.70;;;;;;;-3.78;76.96;95299.81;5091316;28;20232;-81
2022/01/20 01:35:21;;;;;;;18.67;7.72;;;;;;;-3.99;78.20;95300.25;5092459;28;20281;-81
2022/01/20 01:40:37;;;;;;;19.55;7.30;;;;;;;-4.05;76.52;95287.91;5092068;28;20232;-81
2022/01/20 01:43:12;;;;;;;11.90;6.18;;;;;;;-4.00;76.51;95282.78;5092058;28;20206;-81
2022/01/20 01:45:41;;;;;;;20.88;8.30;;;;;;;-4.11;76.03;95272.94;5091868;28;20205;-81
2022/01/20 01:48:09;;;;;;;23.05;8.82;;;;;;;-4.16;77.97;95284.16;5091809;28;20238;-81
2022/01/20 01:50:36;;;;;;;22.13;9.27;;;;;;;-4.03;77.00;95285.84;5091681;28;20206;-81
2022/01/20 01:53:07;;;;;;;19.05;8.82;;;;;;;-4.02;76.98;95282.19;5091795;28;20203;-81
2022/01/20 01:55:35;;;;;;;20.27;9.43;;;;;;;-4.00;77.54;95280.13;5091720;28;20203;-81
2022/01/20 01:58:02;;;;;;;32.78;12.10;;;;;;;-3.91;77.07;95268.19;5091748;28;20229;-82
2022/01/20 02:00:30;;;;;;;21.67;8.15;;;;;;;-3.91;77.58;95262.91;5091417;28;20229;-81
2022/01/20 02:02:58;;;;;;;28.50;11.70;;;;;;;-3.97;78.31;95251.41;5091855;28;20316;-82
2022/01/20 02:05:25;;;;;;;21.00;8.50;;;;;;;-3.88;75.14;95262.47;5092017;28;20198;-82
2022/01/20 02:19:05;;;;;;;21.98;7.57;;;;;;;-3.86;76.99;95262.25;5020041;28;20216;-81
2022/01/20 02:21:34;;;;;;;19.92;9.25;;;;;;;-4.06;77.31;95254.53;5011254;28;20727;-82
2022/01/20 02:24:00;;;;;;;19.40;8.48;;;;;;;-4.16;77.92;95248.97;5036220;28;20226;-81
2022/01/20 02:26:27;;;;;;;17.60;7.07;;;;;;;-4.18;77.92;95246.53;5090140;28;20205;-81
2022/01/20 02:28:54;;;;;;;20.10;8.20;;;;;;;-4.24;78.23;95236.06;5091379;28;20618;-82
2022/01/20 02:31:21;;;;;;;16.98;7.22;;;;;;;-4.26;77.55;95225.69;5090611;28;20242;-81
2022/01/20 02:33:48;;;;;;;22.75;8.40;;;;;;;-4.26;78.06;95238.09;5090583;28;20237;-81
2022/01/20 02:36:17;;;;;;;21.13;8.23;;;;;;;-4.27;78.36;95231.19;5091354;28;20227;-81
2022/01/20 02:38:51;;;;;;;28.58;8.48;;;;;;;-4.32;78.67;95230.00;5091230;28;20202;-82
2022/01/20 02:46:47;;;;;;;16.42;8.52;;;;;;;-4.35;78.82;95219.88;5091177;28;20707;-81
2022/01/20 02:49:15;;;;;;;20.88;8.88;;;;;;;-4.35;79.12;95225.16;5091420;28;20202;-81
2022/01/20 02:51:48;;;;;;;22.95;8.68;;;;;;;-4.58;79.71;95225.00;5090356;28;20568;-81
2022/01/20 02:54:18;;;;;;;17.77;8.00;;;;;;;-4.49;79.69;95226.31;5078099;28;20202;-81
2022/01/20 02:56:45;;;;;;;16.35;7.63;;;;;;;-4.67;78.78;95221.03;5091061;28;20747;-80
2022/01/20 02:59:12;;;;;;;22.85;10.07;;;;;;;-4.97;79.40;95220.91;5091278;28;20218;-80
2022/01/20 03:01:39;;;;;;;21.70;8.93;;;;;;;-4.82;79.93;95228.50;5090780;28;20704;-80
2022/01/20 03:04:07;;;;;;;21.60;8.05;;;;;;;-4.75;80.31;95218.66;5090771;28;20198;-81
2022/01/20 03:06:34;;;;;;;14.50;7.40;;;;;;;-4.43;79.68;95217.53;5091041;28;20219;-83
2022/01/20 03:09:00;;;;;;;24.08;8.32;;;;;;;-4.44;78.99;95205.34;5091089;28;20573;-82
2022/01/20 03:11:29;;;;;;;25.23;9.65;;;;;;;-4.23;78.83;95216.47;5090375;28;20251;-82
2022/01/20 03:13:56;;;;;;;17.52;8.10;;;;;;;-4.16;78.31;95217.22;5090518;28;20214;-81
2022/01/20 03:16:22;;;;;;;17.88;9.02;;;;;;;-4.64;78.56;95215.28;5090752;28;20206;-81
2022/01/20 03:18:49;;;;;;;17.05;9.18;;;;;;;-4.61;79.45;95209.56;5090623;28;20722;-81
2022/01/20 03:21:17;;;;;;;17.50;8.10;;;;;;;-4.44;80.16;95207.16;5090213;28;20245;-81
2022/01/20 03:23:44;;;;;;;13.05;7.20;;;;;;;-4.35;80.67;95211.13;5089917;28;20708;-81
2022/01/20 03:26:10;;;;;;;21.88;8.60;;;;;;;-4.29;79.86;95218.19;5090403;28;20202;-80
2022/01/20 03:28:39;;;;;;;24.15;8.50;;;;;;;-4.18;79.19;95208.69;5090216;28;20202;-81
2022/01/20 03:31:05;;;;;;;30.48;9.63;;;;;;;-4.18;78.16;95198.94;5091027;28;20215;-81
2022/01/20 03:33:32;;;;;;;21.92;8.85;;;;;;;-4.19;78.50;95202.59;5090915;28;20238;-80
2022/01/20 03:35:59;;;;;;;13.05;7.63;;;;;;;-4.25;78.98;95200.06;5090698;28;20287;-81
2022/01/20 03:38:26;;;;;;;20.73;7.90;;;;;;;-4.35;76.99;95200.56;5094154;28;20202;-80
2022/01/20 03:40:53;;;;;;;15.05;7.45;;;;;;;-4.52;77.63;95210.13;5094462;28;20233;-81
2022/01/20 03:43:20;;;;;;;24.40;9.35;;;;;;;-4.66;78.16;95190.94;5094871;28;20205;-81
2022/01/20 03:45:51;;;;;;;24.80;8.30;;;;;;;-4.55;79.02;95203.44;5094348;28;20222;-82
2022/01/20 03:48:18;;;;;;;18.50;7.65;;;;;;;-4.50;79.88;95195.63;5094545;28;20699;-82
2022/01/20 03:51:00;;;;;;;17.95;7.05;;;;;;;-4.40;79.59;95190.66;5093957;28;20703;-81
2022/01/20 03:53:28;;;;;;;18.02;7.10;;;;;;;-4.71;78.02;95190.78;5094019;28;20190;-82
2022/01/20 03:55:55;;;;;;;15.27;6.65;;;;;;;-4.67;78.95;95189.31;5094125;28;20252;-81
2022/01/20 03:58:22;;;;;;;14.63;6.22;;;;;;;-4.68;77.77;95187.72;5094047;28;20673;-81
2022/01/20 04:00:51;;;;;;;13.85;7.25;;;;;;;-4.60;77.56;95187.41;5093411;28;20234;-82
2022/01/20 04:03:18;;;;;;;24.88;6.88;;;;;;;-4.69;78.01;95186.09;5094126;28;20565;-83
2022/01/20 04:05:56;;;;;;;16.23;8.45;;;;;;;-4.82;78.25;95183.59;5093371;28;20202;-82
2022/01/20 04:08:24;;;;;;;15.20;6.57;;;;;;;-4.68;78.96;95193.00;5094057;28;20222;-81
2022/01/20 04:10:51;;;;;;;17.45;8.82;;;;;;;-4.64;79.33;95186.22;5093538;28;20710;-81
2022/01/20 04:13:19;;;;;;;12.70;6.28;;;;;;;-4.69;78.85;95191.38;5094087;28;20253;-81
2022/01/20 04:15:48;;;;;;;23.38;10.40;;;;;;;-4.64;77.73;95183.56;5093961;28;20218;-81
2022/01/20 04:18:23;;;;;;;16.55;8.13;;;;;;;-4.45;80.30;95182.56;5093650;28;20226;-81
2022/01/20 04:20:50;;;;;;;23.73;8.52;;;;;;;-4.37;78.33;95182.25;5094182;28;20320;-82
2022/01/20 04:23:18;;;;;;;18.05;7.03;;;;;;;-4.57;78.16;95178.25;5094171;28;20215;-81
2022/01/20 04:25:45;;;;;;;22.10;8.20;;;;;;;-4.51;78.34;95175.50;5094812;28;20662;-81
2022/01/20 04:28:12;;;;;;;24.33;8.40;;;;;;;-4.44;78.08;95173.63;5080611;28;20202;-82
2022/01/20 04:30:39;;;;;;;19.52;7.60;;;;;;;-4.62;78.19;95181.53;5094632;28;20226;-82
2022/01/20 04:33:05;;;;;;;20.85;7.55;;;;;;;-4.64;78.64;95183.56;5081344;28;20708;-82
2022/01/20 04:35:34;;;;;;;13.77;6.97;;;;;;;-4.64;79.10;95173.00;5093813;28;20222;-83
2022/01/20 04:38:01;;;;;;;22.63;10.32;;;;;;;-4.47;79.31;95179.34;5079899;28;20202;-82
2022/01/20 04:40:34;;;;;;;18.83;8.50;;;;;;;-4.26;78.69;95175.44;5093446;28;20226;-83
2022/01/20 04:43:01;;;;;;;18.77;8.55;;;;;;;-4.30;78.01;95180.38;5093789;28;20197;-83
2022/01/20 04:45:33;;;;;;;17.45;7.35;;;;;;;-4.25;77.54;95181.53;5094542;28;20228;-82
2022/01/20 04:48:14;;;;;;;20.60;6.60;;;;;;;-4.39;78.06;95187.00;5093498;28;20230;-82
2022/01/20 04:58:55;;;;;;;12.63;6.40;;;;;;;-4.85;76.88;95170.81;5093655;28;20229;-81
2022/01/20 05:01:22;;;;;;;16.45;6.25;;;;;;;-5.23;78.68;95177.03;5092949;28;20234;-78
2022/01/20 05:03:49;;;;;;;12.52;6.43;;;;;;;-5.15;79.13;95182.03;5092997;28;20206;-79
2022/01/20 05:06:17;;;;;;;15.07;6.95;;;;;;;-4.96;79.08;95179.44;5092771;28;20202;-78
2022/01/20 05:08:44;;;;;;;21.50;8.07;;;;;;;-4.80;76.50;95178.91;5092775;28;20228;-78
2022/01/20 05:11:13;;;;;;;15.77;7.00;;;;;;;-4.77;77.31;95175.78;5092928;28;20221;-79
2022/01/20 05:13:40;;;;;;;13.77;7.10;;;;;;;-4.74;77.97;95172.72;5079090;28;20774;-78
2022/01/20 05:16:08;;;;;;;18.05;7.40;;;;;;;-5.07;78.63;95173.88;5092876;28;20652;-80
2022/01/20 05:18:34;;;;;;;18.33;7.47;;;;;;;-5.24;80.04;95172.78;5079614;28;20229;-78
2022/01/20 05:21:01;;;;;;;17.52;7.68;;;;;;;-5.11;80.24;95180.59;5091548;28;20234;-80
2022/01/20 05:23:30;;;;;;;18.05;7.90;;;;;;;-5.10;80.13;95174.28;5092641;28;20225;-79
2022/01/20 05:25:56;;;;;;;14.38;8.35;;;;;;;-5.02;80.55;95166.06;5092149;28;20194;-79
2022/01/20 05:28:25;;;;;;;18.38;7.65;;;;;;;-4.80;80.74;95178.91;5091887;28;20218;-80
2022/01/20 05:30:52;;;;;;;17.88;8.80;;;;;;;-4.75;80.07;95181.66;5091328;28;20256;-79
2022/01/20 05:33:19;;;;;;;16.98;8.32;;;;;;;-4.83;80.24;95174.03;5091524;28;20253;-80
2022/01/20 05:35:53;;;;;;;18.27;8.18;;;;;;;-4.82;79.99;95180.94;5091116;28;20222;-79
2022/01/20 05:38:20;;;;;;;17.05;8.80;;;;;;;-4.62;79.55;95178.88;5091514;28;20637;-79
2022/01/20 05:40:49;;;;;;;26.98;12.25;;;;;;;-4.61;79.13;95177.88;5091529;28;20226;-79
2022/01/20 05:43:16;;;;;;;17.63;8.82;;;;;;;-4.69;77.69;95180.81;5090291;28;20222;-79
2022/01/20 05:45:43;;;;;;;26.63;11.85;;;;;;;-4.71;78.69;95177.56;5090123;28;20266;-79
2022/01/20 05:48:13;;;;;;;18.17;7.47;;;;;;;-4.53;78.76;95185.53;5091683;28;20202;-80
2022/01/20 05:50:41;;;;;;;25.30;9.50;;;;;;;-4.51;77.58;95178.16;5092099;28;20190;-79
2022/01/20 05:53:08;;;;;;;35.50;12.55;;;;;;;-5.03;78.26;95185.59;5092439;28;20206;-79
2022/01/20 05:55:36;;;;;;;16.80;8.23;;;;;;;-4.93;79.53;95179.03;5091667;28;20222;-78
2022/01/20 05:58:06;;;;;;;24.83;9.25;;;;;;;-4.82;79.33;95187.03;5090657;28;20230;-80
2022/01/20 06:00:34;;;;;;;21.88;9.18;;;;;;;-4.76;78.73;95195.91;5077750;28;20569;-80
2022/01/20 06:05:45;;;;;;;23.98;10.02;;;;;;;-4.49;78.47;95178.75;5080093;28;20684;-79
2022/01/20 06:08:12;;;;;;;18.50;8.90;;;;;;;-4.55;78.49;95182.28;5091060;28;20210;-79
2022/01/20 06:10:39;;;;;;;22.15;8.88;;;;;;;-4.66;78.47;95180.38;5091685;28;20202;-79
2022/01/20 06:13:07;;;;;;;17.05;8.25;;;;;;;-4.50;78.83;95179.78;5091545;28;20231;-79
2022/01/20 06:15:37;;;;;;;90.70;21.33;;;;;;;-4.16;78.22;95182.84;5091243;28;20205;-79
2022/01/20 06:18:03;;;;;;;45.72;16.48;;;;;;;-3.51;75.69;95172.38;5091255;28;20387;-78
2022/01/20 06:20:31;;;;;;;49.03;13.90;;;;;;;-2.73;73.60;95174.78;5090706;28;20225;-78
2022/01/20 06:22:58;;;;;;;20.58;8.18;;;;;;;-2.28;69.92;95162.50;5091289;28;20305;-79
2022/01/20 06:25:25;;;;;;;26.65;7.85;;;;;;;-1.72;68.20;95168.09;5091740;28;20205;-79
2022/01/20 06:27:52;;;;;;;18.63;7.68;;;;;;;-0.93;66.78;95175.00;5090858;28;20218;-79
2022/01/20 06:30:20;;;;;;;20.08;7.32;;;;;;;-1.29;65.17;95167.53;5090928;28;20201;-78
2022/01/20 06:32:47;;;;;;;18.50;7.07;;;;;;;-1.20;65.42;95176.69;5091088;28;20230;-79
2022/01/20 06:35:14;;;;;;;16.63;8.02;;;;;;;-1.20;64.91;95172.19;5091440;28;20195;-79
2022/01/20 06:37:41;;;;;;;11.10;3.80;;;;;;;-1.28;64.68;95167.28;5091101;28;20209;-78
2022/01/20 06:40:09;;;;;;;13.80;5.75;;;;;;;-1.30;65.46;95163.25;5090668;28;20210;-78
2022/01/20 06:42:36;;;;;;;10.88;5.20;;;;;;;-1.49;65.41;95170.63;5091306;28;20237;-78
2022/01/20 06:45:04;;;;;;;15.85;8.85;;;;;;;-1.62;65.92;95161.09;5091179;28;20226;-78
2022/01/20 06:47:35;;;;;;;17.17;7.38;;;;;;;-1.56;66.45;95181.41;5091391;28;20213;-78
2022/01/20 06:50:02;;;;;;;11.25;3.75;;;;;;;-1.94;66.46;95159.97;5091125;28;20186;-78
2022/01/20 06:52:29;;;;;;;8.90;4.57;;;;;;;-2.03;67.75;95164.03;5091440;28;20206;-78
2022/01/20 06:54:58;;;;;;;9.93;3.83;;;;;;;-2.24;67.76;95163.66;5091351;28;20230;-78
2022/01/20 06:57:27;;;;;;;18.05;6.10;;;;;;;-2.42;68.57;95145.22;5090648;28;20638;-78
2022/01/20 06:59:54;;;;;;;10.30;6.10;;;;;;;-2.46;68.89;95157.31;5090797;28;20310;-79
2022/01/20 07:02:21;;;;;;;19.13;7.10;;;;;;;-2.64;68.66;95163.59;5090638;28;20229;-78
2022/01/20 07:04:50;;;;;;;22.73;8.02;;;;;;;-2.80;68.80;95158.19;5090839;28;20605;-79
2022/01/20 07:07:17;;;;;;;12.05;5.68;;;;;;;-3.05;69.53;95161.06;5090881;28;20263;-79
2022/01/20 07:09:44;;;;;;;10.95;4.68;;;;;;;-2.89;70.13;95169.16;5090701;28;20209;-79
2022/01/20 07:12:12;;;;;;;11.25;4.78;;;;;;;-2.93;69.84;95173.28;5094918;28;20229;-78
2022/01/20 07:14:43;;;;;;;13.88;5.22;;;;;;;-3.02;70.07;95182.63;5094103;28;20684;-77
2022/01/20 07:17:09;;;;;;;10.65;5.68;;;;;;;-3.04;69.64;95168.78;5095016;28;20233;-78
2022/01/20 07:19:36;;;;;;;17.92;5.70;;;;;;;-2.95;69.82;95172.69;5095330;28;20233;-79
2022/01/20 07:22:05;;;;;;;15.55;6.13;;;;;;;-2.90;69.13;95178.13;5095005;28;20596;-79
2022/01/20 07:24:31;;;;;;;7.28;3.22;;;;;;;-2.95;69.13;95172.69;5094402;28;20198;-77
2022/01/20 07:26:58;;;;;;;8.75;4.88;;;;;;;-2.83;69.19;95174.53;5094219;28;20233;-79
2022/01/20 07:29:26;;;;;;;13.20;5.07;;;;;;;-2.70;68.89;95169.00;5091436;28;20207;-79
2022/01/20 07:31:53;;;;;;;12.43;4.80;;;;;;;-2.74;68.37;95167.88;5083404;28;20284;-79
2022/01/20 07:34:20;;;;;;;8.18;3.63;;;;;;;-2.57;67.92;95166.91;5094108;28;20233;-79
2022/01/20 07:36:47;;;;;;;13.25;6.30;;;;;;;-2.49;67.90;95159.66;5094460;28;20312;-79
2022/01/20 07:39:15;;;;;;;17.40;6.47;;;;;;;-2.23;68.81;95164.44;5093465;28;20210;-78
2022/01/20 07:41:42;;;;;;;12.90;6.47;;;;;;;-2.00;67.96;95158.25;5093175;28;20238;-78
2022/01/20 07:44:09;;;;;;;23.48;6.97;;;;;;;-1.69;67.28;95155.16;5093606;28;20238;-78
2022/01/20 07:46:36;;;;;;;17.83;8.80;;;;;;;-1.76;65.46;95149.16;5094521;28;20297;-78
2022/01/20 07:49:04;;;;;;;7.55;4.55;;;;;;;-1.82;64.73;95144.81;5093923;28;20207;-79
2022/01/20 07:51:31;;;;;;;8.45;3.85;;;;;;;-1.87;65.27;95158.78;5094111;28;20626;-78
2022/01/20 07:53:58;;;;;;;16.90;5.78;;;;;;;-1.82;65.26;95160.75;5093423;28;20214;-78
2022/01/20 07:56:26;;;;;;;21.70;7.10;;;;;;;-1.85;65.27;95166.53;5092833;28;20591;-78
2022/01/20 07:58:53;;;;;;;12.93;5.55;;;;;;;-1.79;64.89;95162.94;5093093;28;20822;-79
2022/01/20 08:01:24;;;;;;;14.95;7.60;;;;;;;-1.66;65.60;95157.31;5100799;28;20221;-77
2022/01/20 08:03:51;;;;;;;20.48;10.27;;;;;;;-1.53;64.46;95154.38;5080040;28;20296;-77
2022/01/20 08:06:18;;;;;;;20.17;7.57;;;;;;;-1.38;64.69;95161.00;5093509;28;20221;-76
2022/01/20 08:08:45;;;;;;;20.10;6.00;;;;;;;-1.36;64.13;95164.19;5093169;28;20198;-78
2022/01/20 08:11:12;;;;;;;16.88;7.55;;;;;;;-1.21;64.82;95175.09;5092039;28;20250;-80
2022/01/20 08:13:41;;;;;;;9.80;5.80;;;;;;;-1.10;63.15;95171.56;5093318;28;20660;-78
2022/01/20 08:16:08;;;;;;;17.00;7.15;;;;;;;-1.10;63.15;95168.91;5093168;28;20237;-78
2022/01/20 08:18:35;;;;;;;16.70;7.40;;;;;;;-0.90;63.63;95169.22;5093258;28;20226;-78
2022/01/20 08:21:02;;;;;;;13.13;5.82;;;;;;;-0.98;62.09;95166.16;5085162;28;20210;-79
2022/01/20 08:23:29;;;;;;;11.45;4.50;;;;;;;-1.04;61.67;95162.63;5076863;28;20207;-79
2022/01/20 08:25:56;;;;;;;24.90;8.55;;;;;;;-0.86;62.92;95159.72;5086656;28;20233;-78
2022/01/20 08:28:23;;;;;;;23.98;6.72;;;;;;;-0.67;61.16;95156.78;5092067;28;20566;-80
2022/01/20 08:30:52;;;;;;;16.55;6.60;;;;;;;-0.65;60.72;95150.16;5092964;28;20257;-80
2022/01/20 08:33:19;;;;;;;15.57;7.45;;;;;;;-0.49;61.17;95162.63;5092168;28;20241;-80
2022/01/20 08:35:46;;;;;;;16.98;6.82;;;;;;;-0.68;61.19;95149.88;5093451;28;20203;-78
2022/01/20 08:38:13;;;;;;;11.63;4.90;;;;;;;-0.85;61.78;95145.38;5093079;28;20207;-81
2022/01/20 08:40:45;;;;;;;13.98;6.72;;;;;;;-0.49;61.25;95143.22;5093058;28;20222;-77
2022/01/20 08:43:12;;;;;;;14.15;5.78;;;;;;;-0.42;60.77;95139.34;5092752;28;20569;-79
2022/01/20 08:45:43;;;;;;;13.55;5.93;;;;;;;-0.25;59.91;95131.28;5093203;28;20214;-79
2022/01/20 08:48:13;;;;;;;15.40;6.25;;;;;;;-0.49;60.22;95137.88;5093346;28;20225;-80
2022/01/20 08:50:41;;;;;;;11.02;6.50;;;;;;;-0.18;61.15;95145.22;5092352;28;20198;-79
2022/01/20 08:53:08;;;;;;;19.02;7.05;;;;;;;-0.08;59.03;95140.00;5092976;28;20231;-79
2022/01/20 08:55:36;;;;;;;12.23;5.43;;;;;;;0.24;59.14;95131.31;5092670;28;20225;-79
2022/01/20 08:58:04;;;;;;;11.73;6.00;;;;;;;0.14;58.63;95131.19;5093052;28;20202;-78
2022/01/20 09:00:34;;;;;;;18.13;5.38;;;;;;;0.12;58.40;95141.31;5092604;28;20210;-79
2022/01/20 09:03:01;;;;;;;15.63;7.30;;;;;;;0.49;59.38;95126.25;5092593;28;20591;-79
2022/01/20 09:05:30;;;;;;;17.67;8.80;;;;;;;0.97;58.24;95129.84;5085448;28;20209;-79
2022/01/20 09:07:57;;;;;;;12.88;5.47;;;;;;;0.96;56.17;95130.91;5092248;28;20229;-77
2022/01/20 09:10:24;;;;;;;16.35;6.38;;;;;;;0.85;55.66;95127.34;5080043;28;20203;-80
2022/01/20 09:15:38;;;;;;;19.08;7.47;;;;;;;0.97;57.71;95129.84;5091596;28;20256;-81
2022/01/20 09:18:08;;;;;;;23.13;8.35;;;;;;;1.41;57.15;95125.88;5091270;28;20226;-79
2022/01/20 09:20:38;;;;;;;15.30;5.93;;;;;;;1.48;54.17;95119.53;5091877;28;20194;-79
2022/01/20 09:23:05;;;;;;;17.05;8.02;;;;;;;1.64;54.75;95123.91;5091039;28;20230;-80
2022/01/20 09:25:32;;;;;;;17.60;7.55;;;;;;;1.75;56.27;95114.88;5091711;28;20234;-80
2022/01/20 09:28:00;;;;;;;26.08;9.32;;;;;;;1.93;55.25;95111.72;5083556;28;20210;-76
2022/01/20 09:30:28;;;;;;;22.60;8.70;;;;;;;2.16;54.51;95099.78;5092142;28;20272;-78
2022/01/20 09:33:02;;;;;;;18.75;6.53;;;;;;;1.92;53.35;95096.75;5091588;28;20700;-78
2022/01/20 09:35:32;;;;;;;31.48;10.07;;;;;;;1.86;55.05;95095.16;5077777;28;20268;-78
2022/01/20 09:38:13;;;;;;;34.50;9.80;;;;;;;2.16;55.78;95094.44;5091623;28;20263;-77
2022/01/20 09:40:42;;;;;;;19.20;8.13;;;;;;;2.45;53.53;95078.75;5091586;28;20249;-78
2022/01/20 09:43:14;;;;;;;25.98;9.20;;;;;;;2.55;52.48;95081.41;5088921;28;20230;-76
2022/01/20 09:45:41;;;;;;;19.00;9.30;;;;;;;2.64;53.16;95066.44;5091301;28;20588;-75
2022/01/20 09:48:10;;;;;;;20.25;7.28;;;;;;;2.78;52.38;95064.84;5091922;28;20217;-79
2022/01/20 09:50:38;;;;;;;22.65;8.55;;;;;;;2.92;51.89;95064.31;5089940;28;20229;-78
2022/01/20 09:53:09;;;;;;;17.52;8.38;;;;;;;3.14;51.89;95062.16;5091023;28;20230;-79
2022/01/20 09:55:36;;;;;;;27.10;8.98;;;;;;;3.29;51.46;95064.78;5077774;28;20234;-77
2022/01/20 09:58:04;;;;;;;19.75;9.13;;;;;;;3.33;50.79;95043.63;5091094;28;20236;-78
2022/01/20 10:00:31;;;;;;;20.98;8.98;;;;;;;3.38;51.98;95047.09;5090710;28;20198;-77
2022/01/20 10:03:01;;;;;;;32.40;9.65;;;;;;;3.49;51.14;95037.97;5090742;28;20570;-76
2022/01/20 10:05:32;;;;;;;18.63;8.77;;;;;;;3.83;49.82;95034.59;5090068;28;20213;-76
2022/01/20 10:08:10;;;;;;;24.50;9.38;;;;;;;3.84;49.50;95022.81;5090735;28;20226;-77
2022/01/20 10:10:46;;;;;;;31.15;8.32;;;;;;;3.89;50.58;95009.41;5079312;28;20191;-77
2022/01/20 10:13:15;;;;;;;23.40;8.25;;;;;;;4.00;49.68;95005.59;5091296;28;20221;-78
2022/01/20 10:15:42;;;;;;;27.75;9.98;;;;;;;4.21;49.62;95007.09;5089723;28;20222;-78
2022/01/20 10:18:11;;;;;;;19.52;8.82;;;;;;;4.64;52.58;94999.25;5089028;28;20218;-78
2022/01/20 10:20:51;;;;;;;21.15;9.07;;;;;;;4.78;47.81;94994.06;5089792;28;20210;-78
2022/01/20 10:23:30;;;;;;;20.60;9.43;;;;;;;4.14;47.78;94993.16;5088575;28;20241;-79
2022/01/20 10:26:07;;;;;;;25.15;7.03;;;;;;;3.95;49.16;94984.19;5091191;28;20549;-77
2022/01/20 10:28:55;;;;;;;22.08;9.35;;;;;;;3.87;49.41;94979.41;5090727;28;20233;-79
2022/01/20 10:31:37;;;;;;;28.50;11.10;;;;;;;4.18;50.57;94969.28;5089435;28;20202;-79
2022/01/20 10:34:06;;;;;;;22.65;8.15;;;;;;;4.63;48.72;94976.19;5089145;28;20377;-80
2022/01/20 10:36:38;;;;;;;23.63;8.02;;;;;;;4.59;47.84;94970.59;5090703;28;20206;-80
2022/01/20 10:39:07;;;;;;;33.47;14.10;;;;;;;4.63;47.64;94971.63;5089785;28;20250;-79
2022/01/20 10:41:36;;;;;;;26.55;9.35;;;;;;;4.76;48.46;94959.44;5091070;28;20199;-78
2022/01/20 10:44:07;;;;;;;32.33;13.98;;;;;;;4.75;47.04;94954.34;5090985;28;20282;-79
2022/01/20 10:46:49;;;;;;;39.60;12.68;;;;;;;4.74;47.80;94945.50;5089990;28;20616;-77
2022/01/20 10:49:17;;;;;;;25.02;10.48;;;;;;;4.79;46.85;94952.69;5091076;28;20295;-78
2022/01/20 10:51:54;;;;;;;27.65;8.38;;;;;;;4.72;47.10;94939.63;5090823;28;20295;-78
2022/01/20 10:54:22;;;;;;;31.02;9.60;;;;;;;5.07;47.08;94932.28;5077239;28;20222;-78
2022/01/20 10:56:53;;;;;;;20.00;8.48;;;;;;;5.21;46.38;94927.81;5091095;28;20572;-77
2022/01/20 10:59:22;;;;;;;21.33;8.10;;;;;;;5.23;46.90;94931.03;5080989;28;20685;-75
2022/01/20 11:02:04;;;;;;;24.25;11.55;;;;;;;5.37;45.75;94921.19;5086813;28;20675;-77
2022/01/20 11:04:32;;;;;;;23.88;11.75;;;;;;;5.28;45.29;94917.53;5090596;28;20205;-78
2022/01/20 11:07:02;;;;;;;30.92;12.13;;;;;;;5.11;45.74;94917.19;5090635;28;20226;-79
2022/01/20 11:09:33;;;;;;;27.60;11.45;;;;;;;5.15;45.35;94918.25;5089848;28;20198;-79
2022/01/20 11:12:01;;;;;;;30.30;12.23;;;;;;;5.44;45.79;94912.78;5077469;28;20597;-77
2022/01/20 11:14:29;;;;;;;29.60;12.23;;;;;;;5.51;44.88;94902.47;5090158;28;20758;-78
2022/01/20 11:16:57;;;;;;;25.25;10.75;;;;;;;5.63;44.01;94900.97;5076710;28;20434;-78
2022/01/20 11:19:24;;;;;;;26.73;10.60;;;;;;;5.43;43.52;94898.56;5090488;28;20209;-79
2022/01/20 11:21:52;;;;;;;16.23;6.90;;;;;;;5.69;38.66;94893.66;5090493;28;20226;-79
2022/01/20 11:24:20;;;;;;;17.95;6.75;;;;;;;6.12;37.84;94877.44;5090229;28;20233;-78
2022/01/20 11:26:54;;;;;;;17.73;8.32;;;;;;;6.35;38.92;94881.91;5090347;28;20325;-79
2022/01/20 11:29:22;;;;;;;14.63;6.15;;;;;;;6.56;35.30;94860.84;5090331;28;20209;-81
2022/01/20 11:31:49;;;;;;;20.63;7.97;;;;;;;6.81;37.97;94868.47;5090413;28;20668;-77
2022/01/20 11:34:17;;;;;;;11.55;4.97;;;;;;;7.04;34.31;94856.69;5089858;28;20249;-78
2022/01/20 11:36:44;;;;;;;7.78;3.15;;;;;;;7.28;32.50;94850.28;5090127;28;20199;-77
2022/01/20 11:39:11;;;;;;;9.43;2.38;;;;;;;7.34;30.97;94841.00;5089717;28;20198;-76
2022/01/20 11:41:43;;;;;;;3.22;1.83;;;;;;;7.39;31.52;94839.00;5090356;28;20210;-76
2022/01/20 11:44:13;;;;;;;7.95;2.10;;;;;;;7.48;32.06;94844.50;5089891;28;20226;-77
2022/01/20 11:46:44;;;;;;;6.38;2.45;;;;;;;7.61;32.52;94854.44;5090262;28;20213;-76
2022/01/20 11:49:13;;;;;;;4.00;1.63;;;;;;;7.46;31.28;94847.47;5090194;28;20250;-78
2022/01/20 11:51:46;;;;;;;5.35;2.30;;;;;;;7.36;31.68;94844.22;5090359;28;20206;-76
2022/01/20 11:54:16;;;;;;;5.32;2.10;;;;;;;7.53;31.60;94848.94;5090100;28;20214;-77
2022/01/20 11:56:45;;;;;;;6.05;1.92;;;;;;;7.57;31.68;94837.28;5090441;28;20679;-75
2022/01/20 11:59:15;;;;;;;4.47;2.47;;;;;;;7.62;32.51;94834.47;5081394;28;20195;-75
2022/01/20 12:01:48;;;;;;;3.78;1.92;;;;;;;7.61;31.94;94826.69;5093311;28;20186;-79
2022/01/20 12:04:15;;;;;;;5.22;2.03;;;;;;;7.49;32.66;94825.31;5093355;28;20237;-76
2022/01/20 12:06:45;;;;;;;7.90;2.72;;;;;;;7.63;32.53;94825.28;5093658;28;20222;-77
2022/01/20 12:09:14;;;;;;;5.63;2.33;;;;;;;7.56;32.87;94835.66;5093385;28;20659;-76
2022/01/20 12:11:44;;;;;;;13.35;2.78;;;;;;;7.50;33.56;94823.44;5092178;28;20301;-78
2022/01/20 12:14:14;;;;;;;6.63;2.70;;;;;;;7.42;33.89;94830.31;5092614;28;20262;-76
2022/01/20 12:16:41;;;;;;;7.13;2.65;;;;;;;7.38;33.78;94828.53;5093228;28;20194;-77
2022/01/20 12:19:14;;;;;;;9.32;2.80;;;;;;;7.43;33.85;94831.09;5092868;28;20202;-75
2022/01/20 12:21:48;;;;;;;7.55;1.50;;;;;;;7.29;33.74;94819.56;5093555;28;20218;-77
2022/01/20 12:24:16;;;;;;;11.57;3.55;;;;;;;7.39;34.25;94819.34;5093100;28;20224;-76
2022/01/20 12:26:42;;;;;;;6.60;2.35;;;;;;;7.48;34.57;94826.41;5093095;28;20230;-78
2022/01/20 12:29:11;;;;;;;9.43;3.17;;;;;;;7.45;34.80;94828.91;5093190;28;20430;-77
2022/01/20 12:31:48;;;;;;;6.40;2.72;;;;;;;7.63;34.29;94830.69;5093530;28;20198;-77